createdAt,value
2023-06-07T00:01:00.824Z,2.90
2023-06-07T00:03:27.818Z,2.92
2023-06-07T00:05:54.787Z,2.60
2023-06-07T00:08:21.646Z,2.50
2023-06-07T00:10:48.461Z,2.78
2023-06-07T00:13:15.216Z,2.63
2023-06-07T00:15:41.959Z,3.05
2023-06-07T00:18:11.392Z,2.70
2023-06-07T00:20:40.549Z,2.35
2023-06-07T00:23:07.294Z,2.60
2023-06-07T00:25:36.735Z,2.53
2023-06-07T00:28:03.759Z,2.38
2023-06-07T00:30:35.288Z,2.30
2023-06-07T00:33:04.666Z,3.15
2023-06-07T00:35:33.736Z,2.58
2023-06-07T00:38:05.084Z,2.60
2023-06-07T00:40:34.712Z,2.67
2023-06-07T00:43:03.644Z,2.28
2023-06-07T00:45:30.512Z,2.67
2023-06-07T00:47:57.651Z,2.60
2023-06-07T00:50:27.103Z,2.80
2023-06-07T00:52:54.048Z,3.00
2023-06-07T00:55:21.010Z,3.00
2023-06-07T00:57:47.882Z,2.72
2023-06-07T01:00:16.432Z,2.83
2023-06-07T01:02:46.761Z,2.58
2023-06-07T01:05:15.100Z,2.45
2023-06-07T01:07:45.764Z,2.90
2023-06-07T01:10:13.052Z,2.63
2023-06-07T01:12:44.911Z,2.80
2023-06-07T01:15:13.684Z,2.40
2023-06-07T01:17:45.382Z,2.67
2023-06-07T01:20:16.712Z,3.03
2023-06-07T01:22:46.329Z,2.80
2023-06-07T01:25:13.502Z,2.75
2023-06-07T01:27:46.660Z,3.00
2023-06-07T01:30:14.134Z,3.08
2023-06-07T01:32:42.719Z,2.75
2023-06-07T01:35:11.895Z,2.97
2023-06-07T01:37:39.781Z,2.72
2023-06-07T01:40:08.032Z,2.95
2023-06-07T01:42:39.027Z,2.60
2023-06-07T01:45:12.724Z,2.72
2023-06-07T01:47:40.077Z,2.35
2023-06-07T01:50:09.242Z,2.50
2023-06-07T01:52:36.230Z,2.72
2023-06-07T01:55:07.201Z,2.60
2023-06-07T01:57:58.541Z,3.00
2023-06-07T02:00:33.445Z,2.92
2023-06-07T02:03:06.293Z,2.78
2023-06-07T02:05:35.073Z,2.60
2023-06-07T02:08:09.598Z,3.00
2023-06-07T02:10:38.841Z,2.65
2023-06-07T02:13:08.701Z,3.13
2023-06-07T02:15:35.532Z,2.92
2023-06-07T02:18:03.888Z,2.85
2023-06-07T02:20:35.682Z,2.70
2023-06-07T02:23:03.269Z,3.17
2023-06-07T02:25:31.748Z,2.75
2023-06-07T02:28:00.046Z,2.60
2023-06-07T02:30:27.017Z,2.63
2023-06-07T02:32:55.189Z,2.70
2023-06-07T02:35:23.075Z,2.55
2023-06-07T02:37:50.179Z,2.67
2023-06-07T02:40:17.011Z,3.00
2023-06-07T02:42:47.866Z,2.72
2023-06-07T02:45:15.283Z,3.10
2023-06-07T02:47:47.692Z,2.80
2023-06-07T02:50:16.909Z,2.65
2023-06-07T02:52:45.481Z,2.92
2023-06-07T02:55:12.237Z,3.15
2023-06-07T02:57:38.992Z,2.95
2023-06-07T03:00:10.125Z,2.90
2023-06-07T03:02:37.673Z,2.53
2023-06-07T03:05:05.530Z,3.15
2023-06-07T03:07:33.560Z,3.08
2023-06-07T03:10:00.474Z,2.60
2023-06-07T03:12:27.568Z,3.17
2023-06-07T03:14:54.272Z,3.30
2023-06-07T03:17:21.214Z,2.78
2023-06-07T03:19:47.972Z,2.72
2023-06-07T03:22:14.845Z,2.60
2023-06-07T03:24:44.385Z,2.88
2023-06-07T03:27:11.839Z,3.20
2023-06-07T03:29:38.714Z,2.88
2023-06-07T03:32:06.601Z,2.92
2023-06-07T03:34:36.493Z,2.83
2023-06-07T03:37:03.242Z,3.47
2023-06-07T03:39:32.259Z,3.00
2023-06-07T03:41:58.996Z,3.30
2023-06-07T03:44:25.964Z,3.35
2023-06-07T03:46:52.726Z,3.05
2023-06-07T03:49:21.954Z,3.10
2023-06-07T03:51:49.793Z,2.83
2023-06-07T03:54:16.636Z,3.00
2023-06-07T03:56:43.597Z,2.88
2023-06-07T03:59:12.650Z,3.28
2023-06-07T04:01:39.456Z,3.42
2023-06-07T04:04:07.487Z,2.90
2023-06-07T04:06:35.246Z,3.15
2023-06-07T04:09:04.810Z,3.10
2023-06-07T04:11:32.436Z,3.35
2023-06-07T04:13:59.165Z,3.15
2023-06-07T04:16:25.931Z,2.80
2023-06-07T04:18:52.917Z,3.08
2023-06-07T04:21:19.624Z,3.40
2023-06-07T04:23:46.427Z,3.70
2023-06-07T04:26:13.151Z,3.47
2023-06-07T04:28:42.528Z,3.00
2023-06-07T04:31:09.832Z,3.05
2023-06-07T04:33:36.973Z,3.40
2023-06-07T04:36:04.026Z,3.50
2023-06-07T04:38:33.568Z,3.60
2023-06-07T04:41:07.259Z,3.22
2023-06-07T04:43:37.741Z,3.78
2023-06-07T04:46:05.108Z,3.75
2023-06-07T04:48:33.055Z,3.30
2023-06-07T04:51:05.299Z,2.90
2023-06-07T04:53:37.215Z,3.50
2023-06-07T04:56:05.244Z,4.05
2023-06-07T04:58:34.895Z,4.38
2023-06-07T05:01:01.751Z,3.30
2023-06-07T05:03:28.583Z,3.70
2023-06-07T05:05:56.450Z,2.88
2023-06-07T05:08:24.605Z,3.30
2023-06-07T05:10:51.852Z,3.05
2023-06-07T05:13:18.670Z,3.13
2023-06-07T05:15:45.557Z,3.28
2023-06-07T05:18:13.511Z,3.58
2023-06-07T05:20:42.428Z,3.22
2023-06-07T05:23:09.126Z,2.80
2023-06-07T05:25:40.004Z,3.05
2023-06-07T05:28:12.810Z,2.88
2023-06-07T05:30:40.682Z,3.63
2023-06-07T05:33:08.114Z,3.20
2023-06-07T05:35:34.956Z,3.33
2023-06-07T05:38:02.299Z,3.17
2023-06-07T05:40:29.267Z,3.25
2023-06-07T05:42:57.801Z,3.35
2023-06-07T05:45:25.105Z,3.10
2023-06-07T05:47:52.047Z,2.83
2023-06-07T05:50:22.109Z,3.40
2023-06-07T05:52:57.156Z,3.28
2023-06-07T05:55:28.299Z,3.20
2023-06-07T05:57:58.935Z,3.17
2023-06-07T06:00:25.831Z,3.33
2023-06-07T06:02:54.213Z,2.97
2023-06-07T06:05:29.346Z,3.17
2023-06-07T06:07:59.723Z,3.40
2023-06-07T06:10:27.339Z,3.25
2023-06-07T06:12:54.198Z,3.42
2023-06-07T06:15:21.001Z,3.60
2023-06-07T06:17:50.227Z,3.40
2023-06-07T06:20:17.922Z,3.95
2023-06-07T06:22:44.833Z,3.63
2023-06-07T06:25:13.300Z,3.38
2023-06-07T06:27:40.277Z,3.80
2023-06-07T06:30:08.123Z,3.13
2023-06-07T06:32:35.577Z,3.45
2023-06-07T06:35:04.270Z,3.33
2023-06-07T06:37:31.382Z,3.17
2023-06-07T06:39:58.345Z,3.42
2023-06-07T06:42:25.076Z,3.75
2023-06-07T06:44:51.822Z,3.30
2023-06-07T06:47:18.608Z,3.65
2023-06-07T06:49:45.369Z,3.40
2023-06-07T06:52:12.075Z,3.40
2023-06-07T06:54:38.838Z,3.35
2023-06-07T06:57:06.794Z,3.17
2023-06-07T06:59:33.518Z,3.47
2023-06-07T07:02:02.594Z,3.40
2023-06-07T07:04:29.429Z,3.47
2023-06-07T07:06:56.429Z,2.92
2023-06-07T07:09:23.163Z,3.55
2023-06-07T07:11:49.913Z,3.13
2023-06-07T07:14:16.580Z,3.22
2023-06-07T07:16:43.355Z,3.40
2023-06-07T07:19:10.198Z,2.83
2023-06-07T07:21:36.978Z,2.78
2023-06-07T07:24:04.028Z,3.63
2023-06-07T07:26:33.030Z,3.75
2023-06-07T07:28:59.711Z,3.47
2023-06-07T07:31:26.506Z,3.60
2023-06-07T07:33:53.864Z,3.17
2023-06-07T07:36:22.653Z,3.60
2023-06-07T07:38:50.116Z,3.55
2023-06-07T07:41:16.820Z,3.75
2023-06-07T07:43:43.626Z,4.38
2023-06-07T07:46:10.470Z,3.25
2023-06-07T07:48:42.109Z,3.10
2023-06-07T07:51:08.945Z,3.70
2023-06-07T07:53:38.138Z,3.10
2023-06-07T07:56:05.072Z,2.80
2023-06-07T07:58:31.809Z,3.45
2023-06-07T08:00:58.631Z,3.40
2023-06-07T08:03:25.966Z,3.47
2023-06-07T08:05:55.270Z,3.50
2023-06-07T08:08:22.875Z,3.13
2023-06-07T08:10:52.087Z,3.47
2023-06-07T08:13:18.849Z,3.83
2023-06-07T08:15:47.944Z,3.58
2023-06-07T08:18:17.314Z,3.38
2023-06-07T08:20:44.500Z,3.70
2023-06-07T08:23:12.347Z,3.30
2023-06-07T08:25:39.396Z,3.28
2023-06-07T08:28:06.160Z,3.05
2023-06-07T08:30:35.501Z,2.92
2023-06-07T08:33:02.398Z,2.95
2023-06-07T08:35:31.456Z,2.80
2023-06-07T08:37:58.240Z,3.42
2023-06-07T08:40:26.693Z,3.42
2023-06-07T08:42:53.526Z,2.70
2023-06-07T08:45:21.388Z,2.90
2023-06-07T08:47:49.338Z,2.90
2023-06-07T08:50:23.231Z,3.42
2023-06-07T08:52:55.116Z,3.47
2023-06-07T08:55:22.496Z,2.90
2023-06-07T08:57:54.051Z,3.08
2023-06-07T09:00:27.772Z,3.05
2023-06-07T09:02:54.605Z,2.78
2023-06-07T09:05:22.622Z,2.78
2023-06-07T09:07:53.875Z,3.30
2023-06-07T09:10:20.824Z,2.80
2023-06-07T09:12:51.478Z,3.53
2023-06-07T09:15:22.762Z,3.35
2023-06-07T09:17:59.958Z,3.10
2023-06-07T09:20:29.274Z,3.40
2023-06-07T09:23:16.096Z,3.00
2023-06-07T09:25:45.896Z,2.65
2023-06-07T09:28:16.551Z,2.75
2023-06-07T09:30:53.973Z,2.67
2023-06-07T09:33:34.840Z,3.42
2023-06-07T09:36:13.802Z,3.05
2023-06-07T09:38:43.221Z,3.05
2023-06-07T09:41:15.607Z,3.00
2023-06-07T09:43:55.635Z,2.67
2023-06-07T09:46:23.101Z,2.88
2023-06-07T09:48:57.000Z,3.22
2023-06-07T09:51:25.644Z,3.10
2023-06-07T09:54:01.353Z,3.17
2023-06-07T09:56:28.410Z,3.00
2023-06-07T09:59:13.940Z,2.88
2023-06-07T10:01:48.303Z,3.38
2023-06-07T10:04:15.728Z,3.10
2023-06-07T10:06:44.266Z,3.20
2023-06-07T10:09:12.482Z,3.00
2023-06-07T10:11:42.614Z,3.10
2023-06-07T10:14:17.786Z,3.10
2023-06-07T10:17:00.065Z,3.10
2023-06-07T10:19:47.264Z,3.00
2023-06-07T10:22:21.093Z,3.03
2023-06-07T10:25:00.822Z,3.38
2023-06-07T10:27:33.890Z,2.50
2023-06-07T10:30:03.358Z,2.70
2023-06-07T10:32:31.628Z,3.08
2023-06-07T10:35:01.509Z,3.10
2023-06-07T10:37:32.237Z,2.75
2023-06-07T10:40:11.886Z,2.70
2023-06-07T10:42:44.984Z,3.13
2023-06-07T10:45:19.327Z,3.03
2023-06-07T10:47:49.260Z,2.70
2023-06-07T10:50:31.565Z,3.17
2023-06-07T10:53:00.010Z,2.45
2023-06-07T10:55:28.711Z,2.88
2023-06-07T10:57:57.855Z,3.17
2023-06-07T11:00:34.919Z,2.50
2023-06-07T11:03:13.353Z,2.95
2023-06-07T11:05:59.388Z,2.50
2023-06-07T11:08:38.045Z,2.67
2023-06-07T11:11:28.274Z,2.50
2023-06-07T11:13:54.978Z,3.17
2023-06-07T11:16:39.158Z,2.97
2023-06-07T11:19:12.721Z,2.80
2023-06-07T11:21:58.773Z,2.80
2023-06-07T11:24:26.052Z,2.80
2023-06-07T11:26:52.972Z,3.10
2023-06-07T11:29:20.582Z,2.58
2023-06-07T11:31:52.581Z,2.45
2023-06-07T11:34:20.325Z,2.67
2023-06-07T11:36:47.796Z,2.67
2023-06-07T11:39:18.728Z,2.95
2023-06-07T11:41:48.316Z,2.95
2023-06-07T11:44:16.259Z,2.55
2023-06-07T11:46:49.342Z,2.80
2023-06-07T11:49:19.150Z,2.80
2023-06-07T11:51:52.069Z,3.08
2023-06-07T11:54:21.047Z,2.80
2023-06-07T11:56:49.197Z,3.30
2023-06-07T11:59:16.982Z,3.58
2023-06-07T12:01:45.784Z,3.05
2023-06-07T12:04:15.018Z,2.88
2023-06-07T12:06:43.458Z,2.97
2023-06-07T12:09:13.527Z,3.15
2023-06-07T12:11:40.326Z,3.30
2023-06-07T12:14:10.980Z,3.28
2023-06-07T12:16:39.773Z,3.60
2023-06-07T12:19:06.890Z,3.70
2023-06-07T12:21:33.887Z,3.25
2023-06-07T12:24:02.432Z,3.47
2023-06-07T12:26:31.884Z,3.60
2023-06-07T12:29:02.472Z,3.28
2023-06-07T12:31:29.728Z,3.47
2023-06-07T12:34:15.707Z,3.45
2023-06-07T12:36:42.652Z,2.85
2023-06-07T12:39:14.411Z,3.20
2023-06-07T12:41:41.466Z,3.20
2023-06-07T12:44:10.939Z,3.63
2023-06-07T12:46:38.240Z,3.17
2023-06-07T12:49:05.316Z,2.92
2023-06-07T12:51:35.201Z,3.13
2023-06-07T12:54:04.911Z,2.92
2023-06-07T12:56:33.896Z,2.85
2023-06-07T12:59:05.349Z,2.83
2023-06-07T13:01:32.495Z,3.15
2023-06-07T13:04:02.643Z,3.03
2023-06-07T13:06:29.900Z,2.75
2023-06-07T13:09:06.875Z,2.90
2023-06-07T13:11:34.206Z,2.50
2023-06-07T13:14:01.085Z,2.88
2023-06-07T13:16:28.776Z,2.72
2023-06-07T13:18:58.196Z,2.90
2023-06-07T13:21:24.948Z,2.88
2023-06-07T13:23:51.828Z,2.78
2023-06-07T13:26:18.721Z,2.60
2023-06-07T13:28:46.356Z,3.58
2023-06-07T13:31:16.630Z,3.13
2023-06-07T13:33:44.319Z,3.00
2023-06-07T13:36:12.617Z,2.58
2023-06-07T13:38:40.081Z,2.63
2023-06-07T13:41:07.690Z,2.45
2023-06-07T13:43:53.962Z,2.60
2023-06-07T13:46:23.284Z,2.80
2023-06-07T13:48:50.392Z,2.45
2023-06-07T13:51:19.739Z,2.50
2023-06-07T13:53:46.531Z,2.30
2023-06-07T13:56:15.828Z,2.80
2023-06-07T13:58:42.745Z,2.10
2023-06-07T14:01:09.883Z,2.60
2023-06-07T14:03:37.362Z,2.45
2023-06-07T14:06:04.295Z,2.10
2023-06-07T14:08:31.490Z,2.33
2023-06-07T14:11:01.605Z,2.45
2023-06-07T14:13:28.820Z,2.30
2023-06-07T14:15:55.694Z,2.40
2023-06-07T14:18:22.763Z,2.38
2023-06-07T14:20:49.481Z,2.50
2023-06-07T14:23:16.231Z,2.28
2023-06-07T14:25:42.970Z,2.25
2023-06-07T14:28:12.268Z,2.50
2023-06-07T14:30:41.871Z,2.70
2023-06-07T14:33:08.645Z,2.70
2023-06-07T14:35:36.352Z,2.72
2023-06-07T14:38:05.620Z,2.10
2023-06-07T14:40:34.859Z,2.20
2023-06-07T14:43:01.593Z,2.40
2023-06-07T14:45:28.442Z,2.40
2023-06-07T14:47:55.469Z,2.22
2023-06-07T14:50:22.323Z,2.22
2023-06-07T14:52:49.145Z,2.60
2023-06-07T14:55:15.893Z,2.22
2023-06-07T14:57:42.818Z,2.20
2023-06-07T15:00:10.781Z,2.20
2023-06-07T15:02:37.610Z,2.50
2023-06-07T15:05:04.815Z,2.10
2023-06-07T15:07:32.002Z,2.55
2023-06-07T15:09:58.686Z,2.10
2023-06-07T15:12:25.434Z,2.47
2023-06-07T15:14:52.133Z,2.30
2023-06-07T15:17:18.893Z,2.20
2023-06-07T15:19:45.858Z,2.40
2023-06-07T15:22:12.647Z,2.25
2023-06-07T15:24:41.814Z,2.30
2023-06-07T15:27:08.559Z,2.25
2023-06-07T15:29:35.331Z,2.13
2023-06-07T15:32:02.029Z,1.90
2023-06-07T15:34:31.423Z,2.30
2023-06-07T15:36:58.163Z,2.35
2023-06-07T15:39:24.934Z,2.47
2023-06-07T15:41:53.630Z,2.28
2023-06-07T15:44:21.082Z,2.00
2023-06-07T15:46:49.083Z,2.22
2023-06-07T15:49:20.132Z,2.00
2023-06-07T15:51:49.673Z,2.35
2023-06-07T15:54:16.547Z,2.60
2023-06-07T15:56:44.433Z,2.20
2023-06-07T15:59:11.950Z,2.58
2023-06-07T16:01:41.613Z,2.05
2023-06-07T16:04:08.521Z,2.05
2023-06-07T16:06:36.858Z,2.75
2023-06-07T16:09:09.323Z,2.40
2023-06-07T16:11:42.012Z,2.30
2023-06-07T16:14:11.510Z,3.25
2023-06-07T16:16:41.264Z,2.47
2023-06-07T16:19:10.462Z,2.38
2023-06-07T16:21:40.439Z,2.30
2023-06-07T16:24:10.510Z,2.17
2023-06-07T16:26:39.662Z,2.45
2023-06-07T16:29:06.745Z,2.20
2023-06-07T16:31:33.951Z,2.17
2023-06-07T16:34:01.312Z,2.25
2023-06-07T16:36:29.354Z,2.28
2023-06-07T16:38:56.090Z,2.25
2023-06-07T16:41:27.152Z,2.15
2023-06-07T16:43:54.294Z,2.00
2023-06-07T16:46:23.912Z,2.05
2023-06-07T16:48:50.751Z,2.38
2023-06-07T16:51:17.601Z,2.90
2023-06-07T16:53:44.344Z,3.00
2023-06-07T16:56:11.086Z,2.25
2023-06-07T16:58:37.879Z,2.22
2023-06-07T17:01:07.074Z,2.25
2023-06-07T17:03:36.391Z,2.25
2023-06-07T17:06:03.182Z,2.30
2023-06-07T17:08:29.957Z,2.30
2023-06-07T17:10:59.410Z,2.40
2023-06-07T17:13:26.358Z,2.40
2023-06-07T17:15:53.240Z,2.25
2023-06-07T17:18:22.035Z,3.10
2023-06-07T17:20:49.502Z,2.72
2023-06-07T17:23:16.427Z,2.80
2023-06-07T17:25:43.162Z,2.30
2023-06-07T17:28:10.439Z,2.30
2023-06-07T17:30:41.086Z,3.78
2023-06-07T17:33:10.282Z,3.08
2023-06-07T17:35:36.944Z,2.58
2023-06-07T17:38:03.770Z,3.00
2023-06-07T17:40:30.623Z,2.60
2023-06-07T17:43:00.464Z,2.40
2023-06-07T17:45:27.355Z,2.42
2023-06-07T17:47:55.616Z,2.20
2023-06-07T17:50:37.109Z,2.72
2023-06-07T17:53:13.244Z,2.38
2023-06-07T17:55:43.458Z,2.50
2023-06-07T17:58:12.337Z,2.55
2023-06-07T18:00:39.042Z,2.45
2023-06-07T18:03:08.826Z,2.45
2023-06-07T18:05:36.113Z,2.47
2023-06-07T18:08:04.272Z,2.72
2023-06-07T18:10:33.264Z,2.60
2023-06-07T18:13:00.413Z,2.67
2023-06-07T18:15:27.521Z,2.80
2023-06-07T18:17:54.539Z,2.42
2023-06-07T18:20:21.802Z,3.10
2023-06-07T18:22:51.210Z,2.80
2023-06-07T18:25:20.900Z,2.50
2023-06-07T18:27:52.352Z,2.60
2023-06-07T18:30:19.169Z,2.40
2023-06-07T18:32:46.878Z,2.40
2023-06-07T18:35:13.796Z,2.70
2023-06-07T18:37:40.634Z,2.75
2023-06-07T18:40:08.574Z,2.70
2023-06-07T18:42:38.178Z,2.80
2023-06-07T18:45:06.077Z,2.60
2023-06-07T18:47:33.248Z,3.20
2023-06-07T18:50:05.304Z,2.85
2023-06-07T18:52:32.332Z,3.22
2023-06-07T18:54:59.100Z,3.47
2023-06-07T18:57:26.110Z,3.83
2023-06-07T18:59:52.916Z,3.10
2023-06-07T19:02:20.434Z,3.20
2023-06-07T19:04:47.910Z,3.33
2023-06-07T19:07:14.865Z,3.20
2023-06-07T19:09:42.751Z,2.92
2023-06-07T19:12:10.300Z,2.78
2023-06-07T19:14:39.627Z,3.15
2023-06-07T19:17:06.828Z,2.60
2023-06-07T19:19:33.872Z,3.08
2023-06-07T19:22:00.679Z,3.33
2023-06-07T19:24:27.605Z,2.85
2023-06-07T19:26:54.389Z,3.45
2023-06-07T19:29:21.114Z,3.22
2023-06-07T19:31:47.884Z,3.28
2023-06-07T19:34:14.644Z,3.60
2023-06-07T19:36:41.430Z,3.70
2023-06-07T19:39:10.710Z,3.38
2023-06-07T19:41:40.904Z,3.20
2023-06-07T19:44:07.823Z,2.95
2023-06-07T19:46:34.596Z,3.08
2023-06-07T19:49:01.548Z,3.20
2023-06-07T19:51:28.312Z,3.28
2023-06-07T19:53:57.507Z,3.28
2023-06-07T19:56:24.233Z,3.90
2023-06-07T19:58:50.987Z,4.00
2023-06-07T20:01:17.761Z,3.53
2023-06-07T20:03:44.567Z,3.33
2023-06-07T20:06:11.418Z,3.17
2023-06-07T20:08:40.734Z,3.13
2023-06-07T20:11:09.495Z,3.63
2023-06-07T20:13:36.209Z,3.30
2023-06-07T20:16:03.062Z,3.42
2023-06-07T20:18:29.851Z,3.35
2023-06-07T20:20:56.581Z,3.55
2023-06-07T20:23:23.344Z,3.85
2023-06-07T20:25:50.099Z,3.60
2023-06-07T20:28:17.184Z,3.85
2023-06-07T20:30:43.918Z,4.03
2023-06-07T20:33:10.629Z,3.65
2023-06-07T20:35:37.414Z,3.92
2023-06-07T20:38:04.114Z,3.80
2023-06-07T20:40:30.841Z,3.88
2023-06-07T20:42:59.818Z,4.30
2023-06-07T20:45:27.004Z,4.30
2023-06-07T20:47:54.588Z,4.32
2023-06-07T20:50:23.573Z,4.00
2023-06-07T20:52:50.513Z,4.13
2023-06-07T20:55:17.458Z,4.35
2023-06-07T20:57:46.734Z,4.18
2023-06-07T21:00:14.191Z,4.00
2023-06-07T21:02:41.728Z,4.28
2023-06-07T21:05:10.883Z,4.68
2023-06-07T21:07:40.737Z,4.10
2023-06-07T21:10:08.315Z,4.63
2023-06-07T21:12:35.318Z,4.68
2023-06-07T21:15:02.082Z,4.63
2023-06-07T21:17:33.230Z,5.07
2023-06-07T21:20:06.305Z,4.80
2023-06-07T21:22:35.517Z,4.78
2023-06-07T21:25:02.890Z,4.68
2023-06-07T21:27:29.845Z,4.43
2023-06-07T21:29:56.880Z,4.38
2023-06-07T21:32:23.653Z,4.80
2023-06-07T21:34:50.506Z,4.22
2023-06-07T21:37:17.307Z,4.47
2023-06-07T21:39:45.114Z,4.75
2023-06-07T21:42:12.810Z,4.80
2023-06-07T21:44:41.808Z,4.57
2023-06-07T21:47:08.533Z,6.00
2023-06-07T21:49:37.596Z,5.32
2023-06-07T21:52:04.501Z,4.93
2023-06-07T21:54:31.535Z,4.55
2023-06-07T21:57:00.816Z,4.72
2023-06-07T21:59:27.485Z,4.90
2023-06-07T22:01:54.242Z,4.88
2023-06-07T22:04:21.100Z,5.10
2023-06-07T22:06:50.479Z,5.50
2023-06-07T22:09:17.251Z,5.40
2023-06-07T22:11:45.588Z,5.50
2023-06-07T22:14:15.482Z,5.80
2023-06-07T22:16:46.328Z,5.30
2023-06-07T22:19:15.470Z,4.95
2023-06-07T22:21:42.984Z,5.40
2023-06-07T22:24:10.136Z,4.93
2023-06-07T22:26:37.071Z,5.13
2023-06-07T22:29:04.876Z,5.32
2023-06-07T22:31:37.789Z,5.80
2023-06-07T22:34:08.539Z,5.38
2023-06-07T22:36:41.468Z,6.00
2023-06-07T22:39:10.235Z,5.43
2023-06-07T22:41:39.510Z,5.30
2023-06-07T22:44:06.389Z,5.63
2023-06-07T22:46:34.793Z,5.30
2023-06-07T22:49:01.954Z,5.40
2023-06-07T22:51:31.796Z,5.50
2023-06-07T22:53:58.862Z,5.50
2023-06-07T22:56:26.098Z,5.35
2023-06-07T22:58:53.286Z,5.45
2023-06-07T23:01:25.066Z,5.10
2023-06-07T23:03:52.033Z,5.03
2023-06-07T23:06:20.865Z,5.60
2023-06-07T23:08:54.543Z,4.93
2023-06-07T23:13:48.317Z,6.15
2023-06-07T23:16:15.473Z,5.90
2023-06-07T23:18:42.240Z,5.35
2023-06-07T23:21:09.993Z,5.05
2023-06-07T23:23:38.931Z,5.50
2023-06-07T23:26:06.140Z,5.22
2023-06-07T23:28:32.981Z,5.07
2023-06-07T23:30:59.828Z,4.90
2023-06-07T23:33:27.692Z,4.93
2023-06-07T23:35:56.968Z,5.13
2023-06-07T23:38:24.776Z,5.22
2023-06-07T23:40:51.598Z,5.55
2023-06-07T23:43:18.385Z,5.20
2023-06-07T23:45:45.103Z,5.47
2023-06-07T23:48:12.557Z,5.50
2023-06-07T23:50:39.310Z,5.28
2023-06-07T23:53:08.260Z,4.95
2023-06-07T23:55:34.960Z,5.15
2023-06-07T23:58:03.854Z,5.32
